sensor_id;sensor_type;location;lat;lon;timestamp;temperature;humidity
1165;DHT22;571;50.930;6.926;2024-03-23T03:50:36;8.30;99.90
1165;DHT22;571;50.930;6.926;2024-03-23T03:59:44;8.30;99.90
1165;DHT22;571;50.930;6.926;2024-03-23T04:02:10;8.30;99.90
1165;DHT22;571;50.930;6.926;2024-03-23T04:04:40;8.30;99.90
1165;DHT22;571;50.930;6.926;2024-03-23T04:07:15;8.40;99.90
1165;DHT22;571;50.930;6.926;2024-03-23T04:09:55;8.40;99.90
1165;DHT22;571;50.930;6.926;2024-03-23T04:12:57;8.50;99.90
1165;DHT22;571;50.930;6.926;2024-03-23T04:15:47;8.50;99.90
1165;DHT22;571;50.930;6.926;2024-03-23T04:18:19;8.50;99.90
1165;DHT22;571;50.930;6.926;2024-03-23T04:20:56;8.40;99.90
1165;DHT22;571;50.930;6.926;2024-03-23T04:29:37;8.30;99.90
1165;DHT22;571;50.930;6.926;2024-03-23T04:32:12;8.40;99.90
1165;DHT22;571;50.930;6.926;2024-03-23T04:35:11;8.40;99.90
1165;DHT22;571;50.930;6.926;2024-03-23T04:37:40;8.40;99.90
1165;DHT22;571;50.930;6.926;2024-03-23T04:43:49;8.30;99.90
1165;DHT22;571;50.930;6.926;2024-03-23T04:49:54;8.30;99.90
1165;DHT22;571;50.930;6.926;2024-03-23T04:52:43;8.30;99.90
1165;DHT22;571;50.930;6.926;2024-03-23T04:55:33;8.40;99.90
1165;DHT22;571;50.930;6.926;2024-03-23T04:58:14;8.50;99.90
1165;DHT22;571;50.930;6.926;2024-03-23T05:01:19;8.50;99.90
1165;DHT22;571;50.930;6.926;2024-03-23T05:04:05;8.50;99.90
1165;DHT22;571;50.930;6.926;2024-03-23T05:06:43;8.50;99.90
1165;DHT22;571;50.930;6.926;2024-03-23T05:09:38;8.50;99.90
1165;DHT22;571;50.930;6.926;2024-03-23T05:12:38;8.50;99.90
1165;DHT22;571;50.930;6.926;2024-03-23T05:18:28;8.40;99.90
1165;DHT22;571;50.930;6.926;2024-03-23T05:21:11;8.40;99.90
1165;DHT22;571;50.930;6.926;2024-03-23T05:23:45;8.40;99.90
1165;DHT22;571;50.930;6.926;2024-03-23T05:29:58;8.30;99.90
1165;DHT22;571;50.930;6.926;2024-03-23T05:32:38;8.30;99.90
1165;DHT22;571;50.930;6.926;2024-03-23T05:35:14;8.30;99.90
1165;DHT22;571;50.930;6.926;2024-03-23T05:37:51;8.30;99.90
1165;DHT22;571;50.930;6.926;2024-03-23T05:40:31;8.30;99.90
1165;DHT22;571;50.930;6.926;2024-03-23T05:43:20;8.30;99.90
1165;DHT22;571;50.930;6.926;2024-03-23T05:46:04;8.30;99.90
1165;DHT22;571;50.930;6.926;2024-03-23T05:48:51;8.30;99.90
1165;DHT22;571;50.930;6.926;2024-03-23T05:51:46;8.40;99.90
1165;DHT22;571;50.930;6.926;2024-03-23T05:54:15;8.30;99.90
1165;DHT22;571;50.930;6.926;2024-03-23T05:57:04;8.30;99.90
1165;DHT22;571;50.930;6.926;2024-03-23T06:00:02;8.30;99.90
1165;DHT22;571;50.930;6.926;2024-03-23T06:03:00;8.30;99.90
1165;DHT22;571;50.930;6.926;2024-03-23T06:05:57;8.30;99.90
1165;DHT22;571;50.930;6.926;2024-03-23T06:09:02;8.40;99.90
1165;DHT22;571;50.930;6.926;2024-03-23T06:11:46;8.20;99.90
1165;DHT22;571;50.930;6.926;2024-03-23T06:14:21;8.10;99.90
1165;DHT22;571;50.930;6.926;2024-03-23T06:16:59;8.10;99.90
1165;DHT22;571;50.930;6.926;2024-03-23T06:19:55;8.20;99.90
1165;DHT22;571;50.930;6.926;2024-03-23T06:23:01;8.20;99.90
1165;DHT22;571;50.930;6.926;2024-03-23T06:25:34;8.20;99.90
1165;DHT22;571;50.930;6.926;2024-03-23T06:28:24;8.30;99.90
1165;DHT22;571;50.930;6.926;2024-03-23T06:31:17;8.20;99.90
1165;DHT22;571;50.930;6.926;2024-03-23T06:33:58;8.20;99.90
1165;DHT22;571;50.930;6.926;2024-03-23T06:36:33;8.30;99.90
1165;DHT22;571;50.930;6.926;2024-03-23T06:39:22;8.30;99.90
1165;DHT22;571;50.930;6.926;2024-03-23T06:45:29;8.20;99.90
1165;DHT22;571;50.930;6.926;2024-03-23T06:51:32;8.10;99.90
1165;DHT22;571;50.930;6.926;2024-03-23T06:54:45;8.20;99.90
1165;DHT22;571;50.930;6.926;2024-03-23T06:58:00;8.20;99.90
1165;DHT22;571;50.930;6.926;2024-03-23T07:10:48;8.30;99.90
1165;DHT22;571;50.930;6.926;2024-03-23T07:28:15;8.60;99.90
1165;DHT22;571;50.930;6.926;2024-03-23T07:31:18;8.60;99.90
1165;DHT22;571;50.930;6.926;2024-03-23T07:37:53;8.80;99.90
1165;DHT22;571;50.930;6.926;2024-03-23T07:57:24;9.00;99.90
1165;DHT22;571;50.930;6.926;2024-03-23T08:07:31;9.50;99.90
1165;DHT22;571;50.930;6.926;2024-03-23T10:07:55;11.30;90.20
1165;DHT22;571;50.930;6.926;2024-03-23T10:10:41;11.30;90.30
1165;DHT22;571;50.930;6.926;2024-03-23T10:13:08;11.10;90.60
1165;DHT22;571;50.930;6.926;2024-03-23T10:15:36;11.30;90.20
1165;DHT22;571;50.930;6.926;2024-03-23T10:18:18;11.30;87.40
1165;DHT22;571;50.930;6.926;2024-03-23T10:20:51;11.40;88.70
1165;DHT22;571;50.930;6.926;2024-03-23T10:23:30;11.40;86.10
1165;DHT22;571;50.930;6.926;2024-03-23T10:26:15;11.40;87.40
1165;DHT22;571;50.930;6.926;2024-03-23T10:28:59;11.30;86.20
1165;DHT22;571;50.930;6.926;2024-03-23T10:32:40;11.40;87.20
1165;DHT22;571;50.930;6.926;2024-03-23T10:49:43;10.40;91.40
1165;DHT22;571;50.930;6.926;2024-03-23T11:59:11;11.40;92.60
1165;DHT22;571;50.930;6.926;2024-03-23T12:03:01;11.20;92.60
1165;DHT22;571;50.930;6.926;2024-03-23T17:16:00;8.80;96.40
1165;DHT22;571;50.930;6.926;2024-03-23T17:18:50;8.80;96.00
